Time;durP1;ratioP1;P1;durP2;ratioP2;P2;SDS_P1;SDS_P2;PMS_P1;PMS_P2;Temp;Humidity;BMP_temperature;BMP_pressure;BME280_temperature;BME280_humidity;BME280_pressure;Samples;Min_cycle;Max_cycle;Signal;HPM_P1;HPM_P2
2022/07/30 00:02:15;;;;;;;0.10;0.10;;;18.40;99.90;;;;;;5095810;28;20254;-72
2022/07/30 00:04:41;;;;;;;0.10;0.10;;;18.40;99.90;;;;;;5095700;28;20523;-72
2022/07/30 00:07:07;;;;;;;0.10;0.10;;;18.30;99.90;;;;;;5094193;28;20529;-71
2022/07/30 00:09:34;;;;;;;0.00;0.00;;;18.30;99.90;;;;;;5094483;28;20080;-71
2022/07/30 00:11:59;;;;;;;0.10;0.10;;;18.40;99.90;;;;;;5094373;28;20056;-71
2022/07/30 00:14:25;;;;;;;0.05;0.05;;;18.40;99.90;;;;;;5094322;28;20062;-72
2022/07/30 00:16:52;;;;;;;0.30;0.30;;;18.40;99.90;;;;;;5095356;28;20453;-72
2022/07/30 00:19:18;;;;;;;0.10;0.10;;;18.00;99.90;;;;;;5095476;28;20020;-72
2022/07/30 00:21:44;;;;;;;0.17;0.17;;;17.80;99.90;;;;;;5095778;28;20020;-72
2022/07/30 00:24:10;;;;;;;0.15;0.15;;;17.70;99.90;;;;;;5095573;28;20043;-72
2022/07/30 00:26:36;;;;;;;0.10;0.10;;;17.80;99.90;;;;;;5095069;28;20415;-72
2022/07/30 00:29:02;;;;;;;0.08;0.08;;;17.90;99.90;;;;;;5094117;28;20024;-72
2022/07/30 00:31:28;;;;;;;0.10;0.10;;;17.80;99.90;;;;;;5094036;28;20028;-72
2022/07/30 00:33:54;;;;;;;0.10;0.10;;;18.00;99.90;;;;;;5095380;28;20028;-72
2022/07/30 00:36:20;;;;;;;0.10;0.10;;;18.00;99.90;;;;;;5093810;28;20035;-72
2022/07/30 00:38:45;;;;;;;0.10;0.10;;;17.90;99.90;;;;;;5095096;28;20028;-72
2022/07/30 00:41:12;;;;;;;0.00;0.00;;;17.90;99.90;;;;;;5095255;28;20020;-72
2022/07/30 00:43:38;;;;;;;0.47;0.43;;;17.80;99.90;;;;;;5095021;28;20032;-72
2022/07/30 00:46:03;;;;;;;0.10;0.10;;;17.70;99.90;;;;;;5094916;28;20069;-72
2022/07/30 00:48:29;;;;;;;0.00;0.00;;;17.70;99.90;;;;;;5094823;28;20067;-72
2022/07/30 00:50:55;;;;;;;0.20;0.20;;;17.40;99.90;;;;;;5094520;28;20081;-72
2022/07/30 00:53:21;;;;;;;4.95;3.80;;;17.30;99.90;;;;;;5094339;28;20024;-72
2022/07/30 00:55:47;;;;;;;0.10;0.10;;;17.20;99.90;;;;;;5094762;28;20070;-72
2022/07/30 00:58:12;;;;;;;0.20;0.20;;;17.20;99.90;;;;;;5094630;28;20020;-72
2022/07/30 01:00:38;;;;;;;0.30;0.30;;;17.30;99.90;;;;;;5094835;28;20024;-72
2022/07/30 01:03:04;;;;;;;0.10;0.10;;;17.30;99.90;;;;;;5093369;28;20692;-72
2022/07/30 01:05:30;;;;;;;0.20;0.20;;;17.30;99.90;;;;;;5093337;28;20044;-72
2022/07/30 01:07:56;;;;;;;0.35;0.35;;;17.20;99.90;;;;;;5093511;28;20024;-72
2022/07/30 01:10:22;;;;;;;0.10;0.10;;;17.10;99.90;;;;;;5093389;28;20040;-72
2022/07/30 01:12:47;;;;;;;0.57;0.38;;;17.20;99.90;;;;;;5094378;28;20020;-72
2022/07/30 01:15:13;;;;;;;0.50;0.50;;;17.20;99.90;;;;;;5094402;28;20027;-72
2022/07/30 01:17:40;;;;;;;0.20;0.20;;;17.20;99.90;;;;;;5094368;28;20095;-72
2022/07/30 01:20:13;;;;;;;0.40;0.40;;;17.10;99.90;;;;;;5093133;28;20047;-72
2022/07/30 01:23:03;;;;;;;0.10;0.10;;;17.00;99.90;;;;;;5094327;28;20032;-72
2022/07/30 01:25:30;;;;;;;0.00;0.00;;;17.00;99.90;;;;;;5094176;28;20020;-72
2022/07/30 01:28:07;;;;;;;0.10;0.10;;;17.10;99.90;;;;;;5094298;28;20379;-72
2022/07/30 01:30:37;;;;;;;0.10;0.10;;;17.20;99.90;;;;;;5092910;28;20031;-71
2022/07/30 01:33:05;;;;;;;0.10;0.10;;;17.30;99.90;;;;;;5094203;28;20016;-72
2022/07/30 01:35:33;;;;;;;0.10;0.10;;;17.50;99.90;;;;;;5094143;28;20020;-72
2022/07/30 01:38:00;;;;;;;0.05;0.05;;;17.40;99.90;;;;;;5094057;28;20023;-72
2022/07/30 01:40:28;;;;;;;0.20;0.20;;;17.50;99.90;;;;;;5092819;28;20458;-72
2022/07/30 01:42:57;;;;;;;0.52;0.52;;;17.40;99.90;;;;;;5092962;28;20494;-72
2022/07/30 01:45:25;;;;;;;0.35;0.30;;;17.20;99.90;;;;;;5093813;28;20020;-72
2022/07/30 01:47:57;;;;;;;0.45;0.45;;;17.20;99.90;;;;;;5093661;28;20055;-72
2022/07/30 01:50:22;;;;;;;;;;;17.00;99.90;;;;;;5094153;28;20495;-72
2022/07/30 01:52:51;;;;;;;3.60;0.40;;;17.10;99.90;;;;;;5093595;28;19915;-72
2022/07/30 01:55:47;;;;;;;0.00;0.00;;;17.00;99.90;;;;;;5093592;28;20016;-72
2022/07/30 01:58:17;;;;;;;0.40;0.40;;;17.10;99.90;;;;;;5093597;28;20026;-72
2022/07/30 02:00:43;;;;;;;0.63;0.63;;;17.10;99.90;;;;;;5093985;28;20366;-72
2022/07/30 02:03:09;;;;;;;0.10;0.10;;;16.90;99.90;;;;;;5093358;28;20031;-72
2022/07/30 02:05:37;;;;;;;0.30;0.30;;;17.00;99.90;;;;;;5075247;28;20039;-72
2022/07/30 02:08:20;;;;;;;0.10;0.10;;;17.00;99.90;;;;;;5092140;28;20058;-72
2022/07/30 02:10:59;;;;;;;0.10;0.10;;;16.90;99.90;;;;;;5093503;28;20111;-72
2022/07/30 02:13:28;;;;;;;0.10;0.10;;;16.90;99.90;;;;;;5091925;28;20027;-72
2022/07/30 02:15:57;;;;;;;0.00;0.00;;;17.10;99.90;;;;;;5093233;28;20020;-72
2022/07/30 02:18:32;;;;;;;0.17;0.17;;;17.20;99.90;;;;;;5093022;28;20028;-72
2022/07/30 02:21:03;;;;;;;0.10;0.10;;;17.20;99.90;;;;;;5093311;28;20031;-72
2022/07/30 02:23:34;;;;;;;0.10;0.10;;;17.30;99.90;;;;;;5091747;28;20024;-72
2022/07/30 02:26:00;;;;;;;0.20;0.20;;;17.10;99.90;;;;;;5091776;28;20024;-72
2022/07/30 02:28:29;;;;;;;0.10;0.10;;;17.10;99.90;;;;;;5092823;28;20058;-72
2022/07/30 02:30:59;;;;;;;0.00;0.00;;;17.20;99.90;;;;;;5074748;28;20111;-72
2022/07/30 02:33:39;;;;;;;0.10;0.10;;;17.20;99.90;;;;;;5092859;28;20027;-72
2022/07/30 02:36:06;;;;;;;0.90;0.60;;;17.20;99.90;;;;;;5092760;28;20048;-72
2022/07/30 02:38:33;;;;;;;0.20;0.20;;;17.20;99.90;;;;;;5092718;28;20101;-73
2022/07/30 02:41:01;;;;;;;0.10;0.10;;;17.30;99.90;;;;;;5091614;28;20491;-72
2022/07/30 02:43:29;;;;;;;0.20;0.20;;;17.40;99.90;;;;;;5092709;28;20445;-72
2022/07/30 02:45:58;;;;;;;0.10;0.10;;;17.40;99.90;;;;;;5092657;28;20429;-72
2022/07/30 02:48:26;;;;;;;1.55;0.40;;;17.50;99.90;;;;;;5092580;28;20025;-72
2022/07/30 02:50:54;;;;;;;0.10;0.10;;;17.50;99.90;;;;;;5092660;28;20129;-72
2022/07/30 02:53:22;;;;;;;0.10;0.10;;;17.50;99.90;;;;;;5092598;28;20058;-72
2022/07/30 02:55:50;;;;;;;0.30;0.30;;;17.40;99.90;;;;;;5092514;28;20020;-72
2022/07/30 02:58:21;;;;;;;0.43;0.43;;;17.40;99.90;;;;;;5091000;28;20052;-72
2022/07/30 03:00:49;;;;;;;0.10;0.10;;;17.50;99.90;;;;;;5091376;28;20016;-72
2022/07/30 03:03:16;;;;;;;0.20;0.20;;;17.50;99.90;;;;;;5092254;28;20098;-72
2022/07/30 03:05:43;;;;;;;0.40;0.40;;;17.40;99.90;;;;;;5092347;28;20081;-72
2022/07/30 03:08:10;;;;;;;0.25;0.25;;;17.50;99.90;;;;;;5092454;28;20081;-72
2022/07/30 03:10:38;;;;;;;0.73;0.73;;;17.40;99.90;;;;;;5092355;28;20081;-72
2022/07/30 03:13:06;;;;;;;0.10;0.10;;;17.30;99.90;;;;;;5092551;28;20471;-72
2022/07/30 03:15:34;;;;;;;0.77;0.50;;;17.30;99.90;;;;;;5091375;28;20027;-72
2022/07/30 03:18:00;;;;;;;0.45;0.45;;;17.40;99.90;;;;;;5073973;28;20035;-72
2022/07/30 03:20:29;;;;;;;0.30;0.30;;;17.40;99.90;;;;;;5091085;28;20028;-72
2022/07/30 03:22:57;;;;;;;0.32;0.32;;;17.40;99.90;;;;;;5091005;28;20030;-72
2022/07/30 03:25:25;;;;;;;0.75;0.70;;;17.40;99.90;;;;;;5091973;28;20024;-71
2022/07/30 03:27:54;;;;;;;0.30;0.30;;;17.30;99.90;;;;;;5090735;28;20144;-72
2022/07/30 03:30:22;;;;;;;0.10;0.10;;;17.20;99.90;;;;;;5092042;28;20028;-72
2022/07/30 03:32:48;;;;;;;0.00;0.00;;;17.20;99.90;;;;;;5092068;28;20103;-72
2022/07/30 03:35:15;;;;;;;1.02;0.82;;;17.40;99.90;;;;;;5092528;28;20019;-72
2022/07/30 03:37:41;;;;;;;0.45;0.45;;;17.50;99.90;;;;;;5090759;28;20099;-72
2022/07/30 03:40:08;;;;;;;1.45;0.57;;;17.40;99.90;;;;;;5090700;28;20542;-72
2022/07/30 03:42:34;;;;;;;0.65;0.65;;;17.30;99.90;;;;;;5091968;28;20085;-72
2022/07/30 03:45:05;;;;;;;0.20;0.20;;;17.40;99.90;;;;;;5090433;28;20039;-72
2022/07/30 03:47:33;;;;;;;0.13;0.13;;;17.30;99.90;;;;;;5091934;28;20020;-72
2022/07/30 03:49:59;;;;;;;0.15;0.15;;;17.30;99.90;;;;;;5091864;28;20054;-72
2022/07/30 03:52:27;;;;;;;0.30;0.30;;;17.30;99.90;;;;;;5073796;28;20035;-72
2022/07/30 03:54:53;;;;;;;0.30;0.30;;;17.30;99.90;;;;;;5090376;28;20459;-72
2022/07/30 03:57:19;;;;;;;0.10;0.10;;;17.30;99.90;;;;;;5091573;28;20040;-72
2022/07/30 03:59:45;;;;;;;0.82;0.82;;;17.30;99.90;;;;;;5091826;28;20051;-72
2022/07/30 04:02:12;;;;;;;0.10;0.10;;;17.30;99.90;;;;;;5091850;28;20025;-72
2022/07/30 04:04:42;;;;;;;0.10;0.10;;;17.30;99.90;;;;;;5091561;28;20040;-72
2022/07/30 04:07:08;;;;;;;0.10;0.10;;;17.40;99.90;;;;;;5090583;28;20555;-72
2022/07/30 04:09:34;;;;;;;0.28;0.28;;;17.50;99.90;;;;;;5090481;28;20020;-72
2022/07/30 04:12:00;;;;;;;0.60;0.60;;;17.40;99.90;;;;;;5091841;28;20034;-72
2022/07/30 04:14:26;;;;;;;0.45;0.45;;;17.40;99.90;;;;;;5091829;28;20028;-72
2022/07/30 04:17:02;;;;;;;0.47;0.47;;;17.30;99.90;;;;;;5090260;28;20103;-72
2022/07/30 04:19:37;;;;;;;0.10;0.10;;;17.30;99.90;;;;;;5091662;28;20028;-72
2022/07/30 04:22:04;;;;;;;2.08;0.75;;;17.30;99.90;;;;;;5090382;28;20061;-72
2022/07/30 04:24:31;;;;;;;1.00;0.90;;;17.30;99.90;;;;;;5091438;28;20036;-72
2022/07/30 04:26:59;;;;;;;0.30;0.30;;;17.40;99.90;;;;;;5092763;28;20044;-72
2022/07/30 04:29:25;;;;;;;0.28;0.28;;;17.20;99.90;;;;;;5094007;28;20483;-72
2022/07/30 04:31:53;;;;;;;0.10;0.10;;;17.30;99.90;;;;;;5093925;28;20047;-72
2022/07/30 04:34:19;;;;;;;0.10;0.10;;;17.50;99.90;;;;;;5093952;28;20073;-72
2022/07/30 04:36:45;;;;;;;0.10;0.10;;;17.80;99.90;;;;;;5094802;28;20047;-72
2022/07/30 04:39:11;;;;;;;0.30;0.30;;;17.90;99.90;;;;;;5093619;28;20475;-72
2022/07/30 04:41:37;;;;;;;0.28;0.28;;;17.90;99.90;;;;;;5090406;28;20149;-72
2022/07/30 04:44:03;;;;;;;0.10;0.10;;;17.80;99.90;;;;;;5086185;28;20024;-72
2022/07/30 04:46:29;;;;;;;0.20;0.20;;;17.90;99.90;;;;;;5079607;28;20384;-71
2022/07/30 04:48:55;;;;;;;2.38;1.35;;;17.90;99.90;;;;;;5082888;28;20024;-72
2022/07/30 04:51:35;;;;;;;0.43;0.43;;;17.90;99.90;;;;;;5073574;28;20028;-72
2022/07/30 04:54:03;;;;;;;1.48;0.75;;;17.70;99.90;;;;;;5074574;28;20464;-72
2022/07/30 04:56:29;;;;;;;0.40;0.40;;;17.60;99.90;;;;;;5073044;28;20044;-73
2022/07/30 04:58:55;;;;;;;0.50;0.50;;;17.50;99.90;;;;;;5073353;28;20416;-71
2022/07/30 05:01:23;;;;;;;0.93;0.93;;;17.50;99.90;;;;;;5074365;28;20106;-72
2022/07/30 05:03:52;;;;;;;0.08;0.08;;;17.50;99.90;;;;;;5074403;28;20028;-72
2022/07/30 05:06:19;;;;;;;1.35;0.70;;;17.60;99.90;;;;;;5074314;28;20032;-72
2022/07/30 05:08:45;;;;;;;0.10;0.10;;;17.80;99.90;;;;;;5091088;28;20035;-72
2022/07/30 05:11:12;;;;;;;0.52;0.52;;;17.80;99.90;;;;;;5094483;28;20032;-72
2022/07/30 05:13:41;;;;;;;1.20;1.10;;;17.80;99.90;;;;;;5093167;28;20027;-72
2022/07/30 05:16:07;;;;;;;0.50;0.50;;;17.80;99.90;;;;;;5079714;28;20082;-73
2022/07/30 05:18:33;;;;;;;0.10;0.10;;;17.70;99.90;;;;;;5074255;28;20071;-72
2022/07/30 05:20:59;;;;;;;8.00;1.40;;;17.80;99.90;;;;;;5074075;28;20388;-72
2022/07/30 05:23:24;;;;;;;0.10;0.10;;;17.80;99.90;;;;;;5072955;28;20082;-72
2022/07/30 05:25:50;;;;;;;0.10;0.10;;;17.80;99.90;;;;;;5074252;28;20559;-72
2022/07/30 05:28:16;;;;;;;0.10;0.10;;;17.90;99.90;;;;;;5073995;28;20365;-72
2022/07/30 05:30:41;;;;;;;0.30;0.30;;;17.90;99.90;;;;;;5073943;28;20032;-72
2022/07/30 05:33:07;;;;;;;0.40;0.40;;;17.90;99.90;;;;;;5073846;28;20029;-72
2022/07/30 05:35:33;;;;;;;0.65;0.40;;;17.80;99.90;;;;;;5081817;28;20065;-72
2022/07/30 05:37:59;;;;;;;0.10;0.10;;;17.90;99.90;;;;;;5085263;28;20379;-73
2022/07/30 05:40:25;;;;;;;0.10;0.10;;;18.10;99.90;;;;;;5093887;28;20024;-72
2022/07/30 05:42:51;;;;;;;0.20;0.20;;;18.20;99.90;;;;;;5093840;28;20035;-72
2022/07/30 05:45:17;;;;;;;0.17;0.17;;;18.30;99.90;;;;;;5093953;28;20395;-72
2022/07/30 05:47:43;;;;;;;0.17;0.17;;;18.40;99.90;;;;;;5093609;28;20113;-72
2022/07/30 05:50:08;;;;;;;0.10;0.10;;;18.40;99.90;;;;;;5081343;28;20024;-71
2022/07/30 05:52:34;;;;;;;0.65;0.30;;;18.40;99.90;;;;;;5081798;28;20042;-72
2022/07/30 05:55:00;;;;;;;0.25;0.25;;;18.50;99.90;;;;;;5075358;28;20077;-72
2022/07/30 05:57:26;;;;;;;0.10;0.10;;;18.50;99.90;;;;;;5092234;28;20027;-72
2022/07/30 05:59:52;;;;;;;0.10;0.10;;;18.50;99.90;;;;;;5093491;28;20361;-72
2022/07/30 06:02:17;;;;;;;0.10;0.10;;;18.50;99.90;;;;;;5092337;28;20111;-72
2022/07/30 06:04:43;;;;;;;0.55;0.55;;;18.40;99.90;;;;;;5093410;28;20032;-72
2022/07/30 06:07:09;;;;;;;0.45;0.45;;;18.40;99.90;;;;;;5092978;28;20028;-71
2022/07/30 06:09:34;;;;;;;1.10;0.63;;;18.40;99.90;;;;;;5082861;28;20035;-71
2022/07/30 06:12:00;;;;;;;0.47;0.30;;;18.30;99.90;;;;;;5054936;28;20143;-72
2022/07/30 06:14:26;;;;;;;0.10;0.10;;;18.30;99.90;;;;;;5072981;28;20020;-72
2022/07/30 06:16:52;;;;;;;1.15;0.55;;;18.30;99.90;;;;;;5072689;28;20016;-72
2022/07/30 06:19:17;;;;;;;3.33;0.65;;;18.40;99.90;;;;;;5073152;28;20028;-72
2022/07/30 06:21:43;;;;;;;0.32;0.32;;;18.40;99.90;;;;;;5072575;28;20017;-72
2022/07/30 06:24:09;;;;;;;0.25;0.25;;;18.40;99.90;;;;;;5072874;28;20035;-72
2022/07/30 06:26:34;;;;;;;0.22;0.22;;;18.60;99.90;;;;;;5071201;28;20657;-72
2022/07/30 06:29:00;;;;;;;0.10;0.10;;;18.30;99.90;;;;;;5072704;28;20029;-72
2022/07/30 06:31:26;;;;;;;1.02;0.60;;;18.40;99.90;;;;;;5091086;28;20023;-72
2022/07/30 06:33:51;;;;;;;0.30;0.30;;;18.40;99.90;;;;;;5091454;28;20398;-71
2022/07/30 06:36:17;;;;;;;0.40;0.40;;;18.50;99.90;;;;;;5092515;28;20024;-72
2022/07/30 06:38:43;;;;;;;0.10;0.10;;;18.50;99.90;;;;;;5092656;28;20081;-71
2022/07/30 06:41:09;;;;;;;0.70;0.70;;;18.40;99.90;;;;;;5091443;28;20438;-72
2022/07/30 06:43:34;;;;;;;0.15;0.15;;;18.50;99.90;;;;;;5083655;28;20538;-72
2022/07/30 06:46:00;;;;;;;0.73;0.73;;;18.60;99.90;;;;;;5070917;28;20024;-72
2022/07/30 06:48:26;;;;;;;1.10;0.52;;;18.60;99.90;;;;;;5092265;28;20020;-72
2022/07/30 06:50:52;;;;;;;4.72;1.95;;;18.60;99.90;;;;;;5072155;28;20119;-72
2022/07/30 06:53:17;;;;;;;0.50;0.50;;;18.60;99.90;;;;;;5071998;28;20061;-73
2022/07/30 06:55:43;;;;;;;0.30;0.30;;;18.80;99.90;;;;;;5081691;28;20070;-72
2022/07/30 06:58:09;;;;;;;0.10;0.10;;;18.80;99.90;;;;;;5071964;28;20024;-72
2022/07/30 07:00:35;;;;;;;0.35;0.35;;;18.90;99.90;;;;;;5072363;28;20017;-73
2022/07/30 07:03:00;;;;;;;0.68;0.65;;;18.90;99.90;;;;;;5072123;28;20035;-72
2022/07/30 07:05:27;;;;;;;0.95;0.95;;;18.90;99.90;;;;;;5090604;28;20031;-73
2022/07/30 07:07:53;;;;;;;0.20;0.20;;;18.90;99.90;;;;;;5090134;28;20024;-73
2022/07/30 07:10:19;;;;;;;0.20;0.20;;;18.90;99.90;;;;;;5090827;28;20027;-73
2022/07/30 07:12:45;;;;;;;0.57;0.57;;;18.90;99.90;;;;;;5084171;28;20105;-73
2022/07/30 07:15:11;;;;;;;1.77;0.93;;;19.00;99.90;;;;;;5070605;28;20053;-73
2022/07/30 07:17:39;;;;;;;0.30;0.30;;;19.00;99.90;;;;;;5071576;28;20435;-73
2022/07/30 07:20:05;;;;;;;0.75;0.73;;;19.10;99.90;;;;;;5071969;28;20017;-72
2022/07/30 07:22:31;;;;;;;0.20;0.20;;;19.00;99.90;;;;;;5082580;28;20109;-73
2022/07/30 07:24:56;;;;;;;0.32;0.32;;;19.00;99.90;;;;;;5091975;28;20020;-74
2022/07/30 07:27:22;;;;;;;0.10;0.10;;;19.10;99.90;;;;;;5086100;28;20020;-72
2022/07/30 07:29:48;;;;;;;2.20;2.00;;;19.20;99.90;;;;;;5079173;28;20028;-72
2022/07/30 07:32:14;;;;;;;0.00;0.00;;;19.20;99.90;;;;;;5083913;28;20030;-73
2022/07/30 07:34:39;;;;;;;0.45;0.22;;;19.40;99.90;;;;;;5092668;28;20103;-73
2022/07/30 07:37:05;;;;;;;0.03;0.03;;;19.50;99.90;;;;;;5074087;28;20021;-73
2022/07/30 07:39:31;;;;;;;0.10;0.10;;;19.40;99.90;;;;;;5072278;28;20059;-73
2022/07/30 07:41:57;;;;;;;0.25;0.25;;;19.30;99.90;;;;;;5072232;28;20032;-73
2022/07/30 07:44:23;;;;;;;2.42;2.22;;;19.40;99.90;;;;;;5071870;28;20029;-73
2022/07/30 07:46:51;;;;;;;1.17;0.68;;;19.40;99.90;;;;;;5071763;28;20538;-73
2022/07/30 07:49:17;;;;;;;0.20;0.20;;;19.60;99.90;;;;;;5071867;28;20111;-72
2022/07/30 07:51:43;;;;;;;0.20;0.20;;;19.60;99.90;;;;;;5071668;28;20103;-73
2022/07/30 07:54:08;;;;;;;0.25;0.25;;;19.70;99.90;;;;;;5073575;28;20040;-73
2022/07/30 07:56:34;;;;;;;0.20;0.20;;;19.90;99.90;;;;;;5072187;28;20095;-73
2022/07/30 07:59:00;;;;;;;0.15;0.15;;;20.00;99.90;;;;;;5072549;28;20047;-73
2022/07/30 08:01:25;;;;;;;0.70;0.70;;;20.10;99.90;;;;;;5073981;28;20020;-74
2022/07/30 08:03:51;;;;;;;2.08;1.15;;;20.40;99.90;;;;;;5077734;28;20059;-72
2022/07/30 08:06:17;;;;;;;1.98;1.20;;;20.50;99.90;;;;;;5078523;28;20025;-72
2022/07/30 08:08:43;;;;;;;0.10;0.10;;;20.80;99.90;;;;;;5076399;28;20025;-73
2022/07/30 08:11:09;;;;;;;0.10;0.10;;;20.80;99.90;;;;;;5075656;28;20029;-74
2022/07/30 08:13:35;;;;;;;1.45;0.35;;;20.90;99.90;;;;;;5075366;28;20031;-73
2022/07/30 08:16:01;;;;;;;2.08;1.70;;;21.20;99.90;;;;;;5075466;28;20016;-73
2022/07/30 08:18:27;;;;;;;4.88;1.08;;;21.40;99.90;;;;;;5074138;28;20074;-73
2022/07/30 08:20:53;;;;;;;2.63;1.55;;;21.30;99.90;;;;;;5075350;28;20025;-72
2022/07/30 08:23:21;;;;;;;6.90;1.83;;;21.10;99.90;;;;;;5073762;28;20120;-72
2022/07/30 08:25:47;;;;;;;0.63;0.63;;;21.30;99.90;;;;;;5075072;28;20384;-72
2022/07/30 08:28:13;;;;;;;2.03;0.77;;;21.20;99.90;;;;;;5074961;28;20031;-72
2022/07/30 08:30:39;;;;;;;1.98;1.58;;;21.50;99.90;;;;;;5073836;28;20028;-72
2022/07/30 08:33:04;;;;;;;0.10;0.10;;;21.50;99.90;;;;;;5074096;28;20476;-72
2022/07/30 08:35:30;;;;;;;0.98;0.93;;;21.60;99.90;;;;;;5075242;28;20039;-72
2022/07/30 08:37:56;;;;;;;1.17;0.82;;;21.80;99.90;;;;;;5073322;28;20381;-72
2022/07/30 08:40:25;;;;;;;0.00;0.00;;;21.80;99.90;;;;;;5074954;28;20021;-73
2022/07/30 08:42:52;;;;;;;0.40;0.40;;;21.90;99.90;;;;;;5074692;28;20033;-72
2022/07/30 08:45:18;;;;;;;0.32;0.30;;;21.90;99.90;;;;;;5073155;28;20797;-73
2022/07/30 08:47:47;;;;;;;0.00;0.00;;;21.80;99.90;;;;;;5073327;28;20028;-72
2022/07/30 08:50:13;;;;;;;0.10;0.10;;;22.20;99.90;;;;;;5074537;28;20023;-71
2022/07/30 08:52:41;;;;;;;0.57;0.38;;;22.30;99.90;;;;;;5074610;28;20498;-72
2022/07/30 08:55:07;;;;;;;2.53;2.15;;;22.20;99.90;;;;;;5074401;28;20025;-71
2022/07/30 08:57:34;;;;;;;0.40;0.40;;;22.40;99.90;;;;;;5075238;28;20082;-72
2022/07/30 09:00:01;;;;;;;2.50;1.55;;;22.50;99.90;;;;;;5083172;28;20031;-72
2022/07/30 09:02:30;;;;;;;0.30;0.30;;;22.70;99.90;;;;;;5084109;28;20070;-71
2022/07/30 09:04:56;;;;;;;0.60;0.60;;;22.60;99.90;;;;;;5094333;28;20039;-72
2022/07/30 09:07:22;;;;;;;0.82;0.77;;;23.00;99.90;;;;;;5093676;28;20028;-72
2022/07/30 09:09:48;;;;;;;1.27;1.13;;;23.10;99.90;;;;;;5093283;28;20084;-72
2022/07/30 09:12:36;;;;;;;0.77;0.75;;;23.00;99.90;;;;;;5092240;28;20032;-72
2022/07/30 09:15:06;;;;;;;3.20;0.73;;;23.10;99.90;;;;;;5085097;28;20099;-72
2022/07/30 09:17:44;;;;;;;1.00;0.45;;;23.40;99.90;;;;;;5074086;28;20035;-72
2022/07/30 09:20:10;;;;;;;1.40;1.27;;;23.60;99.90;;;;;;5075549;28;20110;-72
2022/07/30 09:22:42;;;;;;;0.52;0.52;;;23.50;99.90;;;;;;5093951;28;20055;-72
2022/07/30 09:25:08;;;;;;;1.67;1.08;;;23.30;99.90;;;;;;5075692;28;20047;-72
2022/07/30 09:27:45;;;;;;;0.47;0.47;;;23.30;99.50;;;;;;5093901;28;20031;-72
2022/07/30 09:30:11;;;;;;;7.25;0.85;;;23.00;99.90;;;;;;5092525;28;20448;-72
2022/07/30 09:32:50;;;;;;;0.10;0.10;;;23.50;99.90;;;;;;5093787;28;20495;-70
2022/07/30 09:35:17;;;;;;;0.30;0.30;;;24.10;99.90;;;;;;5093242;28;20052;-70
2022/07/30 09:37:44;;;;;;;0.22;0.22;;;24.50;97.40;;;;;;5083094;28;20431;-71
2022/07/30 09:40:16;;;;;;;0.20;0.20;;;24.60;96.50;;;;;;5083993;28;20052;-71
2022/07/30 09:42:43;;;;;;;0.47;0.47;;;24.50;96.80;;;;;;5081900;28;20036;-71
2022/07/30 09:45:11;;;;;;;1.88;1.23;;;24.20;98.00;;;;;;5080186;28;20028;-71
2022/07/30 09:47:38;;;;;;;0.00;0.00;;;23.70;96.50;;;;;;5080882;28;20531;-71
2022/07/30 09:50:13;;;;;;;0.03;0.03;;;24.00;94.50;;;;;;5075780;28;20528;-71
2022/07/30 09:52:42;;;;;;;0.30;0.30;;;24.50;91.40;;;;;;5072098;28;20369;-71
2022/07/30 09:55:09;;;;;;;1.15;0.98;;;24.90;86.90;;;;;;5082834;28;20109;-71
2022/07/30 09:57:35;;;;;;;0.73;0.73;;;24.50;87.80;;;;;;5092363;28;20020;-71
2022/07/30 10:00:19;;;;;;;1.45;0.25;;;24.40;88.00;;;;;;5093168;28;20030;-71
2022/07/30 10:02:46;;;;;;;0.28;0.15;;;24.60;85.50;;;;;;5093519;28;20034;-72
2022/07/30 10:05:14;;;;;;;5.93;1.95;;;24.50;84.90;;;;;;5083792;28;20035;-72
2022/07/30 10:07:48;;;;;;;6.65;2.22;;;25.10;86.10;;;;;;5075176;28;20035;-71
2022/07/30 10:10:16;;;;;;;0.00;0.00;;;25.70;82.20;;;;;;5073005;28;20052;-72
2022/07/30 10:12:42;;;;;;;0.43;0.43;;;26.00;76.30;;;;;;5078210;28;20032;-72
2022/07/30 10:15:09;;;;;;;0.20;0.20;;;25.80;75.20;;;;;;5092088;28;20028;-72
2022/07/30 10:17:37;;;;;;;0.77;0.77;;;26.10;75.40;;;;;;5093239;28;20114;-72
2022/07/30 10:20:07;;;;;;;0.30;0.30;;;25.50;73.80;;;;;;5093093;28;20031;-72
2022/07/30 10:22:33;;;;;;;0.00;0.00;;;25.90;75.10;;;;;;5075614;28;20025;-72
2022/07/30 10:25:00;;;;;;;0.05;0.05;;;26.30;74.00;;;;;;5073194;28;20029;-72
2022/07/30 10:27:26;;;;;;;0.45;0.45;;;26.90;69.60;;;;;;5071524;28;20029;-72
2022/07/30 10:29:52;;;;;;;0.40;0.40;;;27.00;68.30;;;;;;5087635;28;20024;-72
2022/07/30 10:32:18;;;;;;;0.32;0.32;;;26.60;67.70;;;;;;5092903;28;20479;-71
2022/07/30 10:34:44;;;;;;;0.22;0.22;;;26.60;70.20;;;;;;5073869;28;20087;-72
2022/07/30 10:37:14;;;;;;;0.57;0.57;;;26.40;64.70;;;;;;5072506;28;20111;-72
2022/07/30 10:39:55;;;;;;;0.05;0.05;;;26.50;66.60;;;;;;5071368;28;20187;-72
2022/07/30 10:42:30;;;;;;;0.08;0.08;;;26.50;66.50;;;;;;5072509;28;20420;-72
2022/07/30 10:45:18;;;;;;;0.20;0.13;;;26.10;66.20;;;;;;5072260;28;20527;-72
2022/07/30 10:47:46;;;;;;;1.42;0.77;;;26.50;65.50;;;;;;5072515;28;20032;-72
2022/07/30 10:50:13;;;;;;;0.05;0.05;;;26.30;65.20;;;;;;5071172;28;20107;-72
2022/07/30 10:53:00;;;;;;;0.85;0.85;;;27.00;65.90;;;;;;5072206;28;20025;-72
2022/07/30 10:55:32;;;;;;;4.28;2.85;;;26.90;62.90;;;;;;5073029;28;20017;-73
2022/07/30 10:58:05;;;;;;;9.95;1.10;;;27.30;61.80;;;;;;5072208;28;20032;-72
2022/07/30 11:00:54;;;;;;;0.65;0.65;;;27.30;60.60;;;;;;5072329;28;20048;-71
2022/07/30 11:03:25;;;;;;;0.65;0.65;;;26.70;62.00;;;;;;5064567;28;20075;-71
2022/07/30 11:06:11;;;;;;;2.75;2.35;;;26.60;61.60;;;;;;5068752;22;20089;-72
2022/07/30 11:08:39;;;;;;;0.00;0.00;;;26.60;60.90;;;;;;5052254;28;20507;-72
2022/07/30 11:11:27;;;;;;;0.10;0.10;;;26.60;62.50;;;;;;5050766;28;20017;-72
2022/07/30 11:13:59;;;;;;;1.15;0.90;;;27.10;60.60;;;;;;5051885;28;20032;-73
2022/07/30 11:16:31;;;;;;;2.20;1.38;;;27.50;60.60;;;;;;5051716;28;20025;-72
2022/07/30 11:19:03;;;;;;;5.28;1.27;;;27.30;59.70;;;;;;5051784;28;20032;-73
2022/07/30 11:21:30;;;;;;;15.00;1.13;;;27.50;58.10;;;;;;5051873;28;20067;-73
2022/07/30 11:23:58;;;;;;;0.40;0.32;;;27.90;57.70;;;;;;5052227;28;20447;-77
2022/07/30 11:26:42;;;;;;;0.80;0.60;;;28.30;57.30;;;;;;5050650;28;20120;-77
2022/07/30 11:29:31;;;;;;;0.30;0.10;;;28.20;56.10;;;;;;5050687;28;20385;-77
2022/07/30 11:32:17;;;;;;;0.35;0.35;;;28.40;56.10;;;;;;5053058;28;20031;-75
2022/07/30 11:34:43;;;;;;;0.35;0.25;;;27.70;57.20;;;;;;5051718;28;20031;-82
2022/07/30 11:37:15;;;;;;;1.23;1.13;;;27.10;57.30;;;;;;5051476;28;20013;-72
2022/07/30 11:39:52;;;;;;;0.00;0.00;;;26.60;56.20;;;;;;5051890;28;20476;-75
2022/07/30 11:42:44;;;;;;;0.52;0.13;;;26.30;55.50;;;;;;5033127;28;20100;-76
2022/07/30 11:45:19;;;;;;;0.10;0.10;;;26.40;57.20;;;;;;5049501;28;20048;-73
2022/07/30 11:47:47;;;;;;;0.30;0.30;;;26.90;58.00;;;;;;5051603;28;20108;-72
2022/07/30 11:50:21;;;;;;;0.80;0.80;;;27.20;57.80;;;;;;5050453;28;20033;-72
2022/07/30 11:52:54;;;;;;;0.10;0.10;;;27.50;56.50;;;;;;5051825;28;20082;-72
2022/07/30 11:55:24;;;;;;;0.50;0.50;;;27.50;54.50;;;;;;5051603;28;20025;-72
2022/07/30 11:57:51;;;;;;;0.10;0.10;;;27.40;54.80;;;;;;5051634;28;20021;-72
2022/07/30 12:00:17;;;;;;;0.30;0.25;;;27.30;55.30;;;;;;5051545;28;20053;-72
2022/07/30 12:02:44;;;;;;;1.42;1.02;;;27.20;56.50;;;;;;5050581;28;20060;-72
2022/07/30 12:05:10;;;;;;;0.15;0.15;;;27.00;56.40;;;;;;5049986;28;20456;-72
2022/07/30 12:07:36;;;;;;;0.98;0.65;;;27.30;57.10;;;;;;5051449;28;20112;-73
2022/07/30 12:10:16;;;;;;;0.40;0.40;;;27.50;56.40;;;;;;5051462;28;20112;-72
2022/07/30 12:12:43;;;;;;;0.30;0.30;;;27.30;53.80;;;;;;5051928;28;20075;-73
2022/07/30 12:15:10;;;;;;;0.52;0.52;;;27.00;54.10;;;;;;5050035;28;20472;-72
2022/07/30 12:17:44;;;;;;;0.70;0.55;;;27.00;56.00;;;;;;5049874;28;20025;-72
2022/07/30 12:20:19;;;;;;;1.00;0.68;;;26.80;53.70;;;;;;5050178;28;20025;-72
2022/07/30 12:22:45;;;;;;;0.52;0.52;;;27.10;54.30;;;;;;5051382;28;20036;-72
2022/07/30 12:25:12;;;;;;;0.00;0.00;;;27.00;54.60;;;;;;5049934;28;20540;-72
2022/07/30 12:27:38;;;;;;;0.38;0.38;;;26.50;55.90;;;;;;5051123;28;20108;-72
2022/07/30 12:30:06;;;;;;;0.88;0.50;;;26.50;57.20;;;;;;5051413;28;20033;-72
2022/07/30 12:32:32;;;;;;;0.52;0.45;;;26.20;56.60;;;;;;5051141;28;20051;-72
2022/07/30 12:34:58;;;;;;;0.60;0.30;;;26.20;57.10;;;;;;5051123;28;20020;-71
2022/07/30 12:37:24;;;;;;;0.10;0.10;;;26.30;56.00;;;;;;5049888;28;20017;-72
2022/07/30 12:40:04;;;;;;;0.10;0.10;;;26.30;57.30;;;;;;5051179;28;20032;-72
2022/07/30 12:42:30;;;;;;;0.60;0.60;;;26.40;57.30;;;;;;5051253;28;20392;-72
2022/07/30 12:44:57;;;;;;;0.38;0.28;;;26.30;57.40;;;;;;5051069;28;20025;-72
2022/07/30 12:47:30;;;;;;;0.50;0.47;;;26.10;57.60;;;;;;5050234;28;20054;-71
2022/07/30 12:49:58;;;;;;;1.15;1.05;;;26.10;57.00;;;;;;5053526;28;20554;-73
2022/07/30 12:52:29;;;;;;;6.13;0.75;;;25.30;57.90;;;;;;5054450;28;20021;-72
2022/07/30 12:54:57;;;;;;;6.63;0.60;;;25.30;59.90;;;;;;5054531;28;20523;-74